Gainesville Regional Airport
KGNV : now visible

Airfield :











YOU CAN JOIN US ON...

 
LOGIN :

Register | Disclaimer

   EN    FR    IT 

 









Legend :    VFR   Marginal VFR   IFR   Intensive IFR   Very Intensive IFR
Visi :
Ceiling :
>= 8 km
>= 3000ft
5 to 8 km
1000 to 3000 ft
1500m to 5 km
500 to 1000 ft
800 to 1500m
200 to 500 ft
< 800m
< 200 ft
Symbols :   Thunderstorms  Fog  Heavy snow  Heavy precipitations  Wind > 20 kt






- Airport Elevation : 152 ft
- IATA code : GNV


KGNV - Gainesville Regional

EXPIRED METARs :
  • 260253Z 25004KT 10SM CLR 18/16 A3004 RMK AO2 SLP172 T01780161 51007 $

TAF KGNV
Valid from the 26 at 00:00 until the 27 at 00:00 UTC


252340Z 2600/2624 24008KT P6SM SCT040
FM260600 VRB03KT 6SM BR OVC007
FM260900 21004KT 4SM BR OVC003
TEMPO 2609/2613 2SM BR
FM261400 21007KT P6SM BKN006
FM261600 21007KT P6SM SCT008 BKN025
FM261800 22009KT P6SM SCT025 BKN250
KZJX FIR / North America



MET'MAP, your aeronautical weather chart ! - Copyright ORBIFLY December 2007 - Disclaimer

ORBIFLY MET'MAP TEAM :

Programming & Development : Alexandra Zaïnal
Concept & original design : Baudouin d'Aumeries
Assistance for programming : Marc-Olivier Méhu
Technical & hardware support : Manuel Goepfert

Contact : metmap@orbifly.com




SOURCES & CREDITS :

   NOAA       Earth
Advisory